sensor_id;sensor_type;location;lat;lon;timestamp;pressure;altitude;pressure_sealevel;temperature;humidity
49947;BME280;35839;48.662;13.300;2022-08-11T05:08:22;97833.00;;;16.35;91.32
49947;BME280;35839;48.662;13.300;2022-08-11T05:13:45;97828.31;;;16.46;90.85
49947;BME280;35839;48.662;13.300;2022-08-11T05:16:49;97836.56;;;16.51;90.87
49947;BME280;35839;48.662;13.300;2022-08-11T05:19:35;97831.03;;;16.60;90.00
49947;BME280;35839;48.662;13.300;2022-08-11T05:22:22;97831.13;;;16.67;90.24
49947;BME280;35839;48.662;13.300;2022-08-11T05:25:13;97836.53;;;16.74;87.27
49947;BME280;35839;48.662;13.300;2022-08-11T05:28:08;97833.59;;;16.92;90.64
49947;BME280;35839;48.662;13.300;2022-08-11T05:30:59;97829.59;;;16.96;88.87
49947;BME280;35839;48.662;13.300;2022-08-11T05:33:49;97824.50;;;17.09;87.50
49947;BME280;35839;48.662;13.300;2022-08-11T05:36:47;97829.63;;;17.25;85.34
49947;BME280;35839;48.662;13.300;2022-08-11T05:39:20;97830.66;;;17.39;86.18
49947;BME280;35839;48.662;13.300;2022-08-11T05:42:06;97837.66;;;17.47;85.64
49947;BME280;35839;48.662;13.300;2022-08-11T05:44:53;97824.69;;;17.52;84.71
49947;BME280;35839;48.662;13.300;2022-08-11T05:47:38;97834.03;;;17.63;83.60
49947;BME280;35839;48.662;13.300;2022-08-11T05:50:25;97829.50;;;17.78;78.79
49947;BME280;35839;48.662;13.300;2022-08-11T05:53:11;97836.28;;;17.81;81.68
49947;BME280;35839;48.662;13.300;2022-08-11T05:55:56;97844.88;;;17.98;80.74
49947;BME280;35839;48.662;13.300;2022-08-11T05:58:43;97830.19;;;17.95;81.11
49947;BME280;35839;48.662;13.300;2022-08-11T06:01:20;97830.69;;;18.05;79.26
49947;BME280;35839;48.662;13.300;2022-08-11T06:03:50;97835.25;;;18.11;77.97
49947;BME280;35839;48.662;13.300;2022-08-11T06:06:36;97830.97;;;18.32;76.10
49947;BME280;35839;48.662;13.300;2022-08-11T06:09:05;97830.53;;;18.50;75.26
49947;BME280;35839;48.662;13.300;2022-08-11T06:11:40;97836.53;;;18.59;74.33
49947;BME280;35839;48.662;13.300;2022-08-11T06:14:07;97844.50;;;18.59;73.17
49947;BME280;35839;48.662;13.300;2022-08-11T06:16:36;97840.66;;;18.61;73.88
49947;BME280;35839;48.662;13.300;2022-08-11T06:19:03;97849.81;;;18.80;73.70
49947;BME280;35839;48.662;13.300;2022-08-11T06:21:33;97843.75;;;18.86;74.25
49947;BME280;35839;48.662;13.300;2022-08-11T06:24:09;97846.72;;;18.98;74.74
49947;BME280;35839;48.662;13.300;2022-08-11T06:26:36;97848.22;;;19.07;73.44
49947;BME280;35839;48.662;13.300;2022-08-11T06:29:03;97837.06;;;19.19;72.40
49947;BME280;35839;48.662;13.300;2022-08-11T06:31:31;97834.75;;;19.37;73.86
49947;BME280;35839;48.662;13.300;2022-08-11T06:34:08;97837.66;;;19.49;70.35
49947;BME280;35839;48.662;13.300;2022-08-11T06:37:08;97829.53;;;19.57;69.19
49947;BME280;35839;48.662;13.300;2022-08-11T06:42:24;97830.88;;;19.74;68.45
49947;BME280;35839;48.662;13.300;2022-08-11T06:45:04;97835.00;;;19.84;68.99
49947;BME280;35839;48.662;13.300;2022-08-11T06:47:33;97832.38;;;19.97;65.99
49947;BME280;35839;48.662;13.300;2022-08-11T06:49:59;97832.44;;;20.10;67.64
49947;BME280;35839;48.662;13.300;2022-08-11T06:52:44;97838.44;;;20.26;67.70
49947;BME280;35839;48.662;13.300;2022-08-11T06:55:14;97824.13;;;20.40;66.95
49947;BME280;35839;48.662;13.300;2022-08-11T06:58:12;97827.22;;;20.50;64.78
49947;BME280;35839;48.662;13.300;2022-08-11T07:00:59;97821.75;;;20.58;64.50
49947;BME280;35839;48.662;13.300;2022-08-11T07:03:32;97827.88;;;20.66;65.20
49947;BME280;35839;48.662;13.300;2022-08-11T07:08:51;97824.59;;;20.90;65.82
49947;BME280;35839;48.662;13.300;2022-08-11T07:14:22;97828.06;;;21.04;63.03
49947;BME280;35839;48.662;13.300;2022-08-11T07:17:15;97832.78;;;21.15;60.55
49947;BME280;35839;48.662;13.300;2022-08-11T07:19:46;97826.22;;;21.18;60.86
49947;BME280;35839;48.662;13.300;2022-08-11T07:22:34;97828.44;;;21.34;60.01
49947;BME280;35839;48.662;13.300;2022-08-11T07:25:21;97822.50;;;21.52;60.58
49947;BME280;35839;48.662;13.300;2022-08-11T07:28:11;97819.66;;;21.47;58.22
49947;BME280;35839;48.662;13.300;2022-08-11T07:31:02;97827.84;;;21.52;57.93
49947;BME280;35839;48.662;13.300;2022-08-11T07:33:43;97818.50;;;21.75;57.94
49947;BME280;35839;48.662;13.300;2022-08-11T07:36:10;97820.31;;;21.87;58.06
49947;BME280;35839;48.662;13.300;2022-08-11T07:38:40;97812.72;;;21.91;55.42
49947;BME280;35839;48.662;13.300;2022-08-11T07:41:12;97811.66;;;21.99;53.64
49947;BME280;35839;48.662;13.300;2022-08-11T07:43:41;97811.63;;;22.05;53.79
49947;BME280;35839;48.662;13.300;2022-08-11T07:46:11;97818.72;;;22.25;53.49
49947;BME280;35839;48.662;13.300;2022-08-11T07:48:56;97811.13;;;22.28;51.70
49947;BME280;35839;48.662;13.300;2022-08-11T07:51:41;97809.88;;;22.31;51.12
49947;BME280;35839;48.662;13.300;2022-08-11T07:54:26;97807.09;;;22.44;50.51
49947;BME280;35839;48.662;13.300;2022-08-11T07:56:52;97813.88;;;22.47;49.22
49947;BME280;35839;48.662;13.300;2022-08-11T07:59:18;97813.47;;;22.50;48.14
49947;BME280;35839;48.662;13.300;2022-08-11T08:02:03;97818.69;;;22.63;47.65
49947;BME280;35839;48.662;13.300;2022-08-11T08:04:48;97811.28;;;22.65;47.49
49947;BME280;35839;48.662;13.300;2022-08-11T08:07:33;97814.59;;;22.61;46.21
49947;BME280;35839;48.662;13.300;2022-08-11T08:10:20;97813.94;;;22.65;47.05
49947;BME280;35839;48.662;13.300;2022-08-11T08:13:05;97820.25;;;22.78;45.05
49947;BME280;35839;48.662;13.300;2022-08-11T08:15:51;97827.09;;;22.92;44.47
49947;BME280;35839;48.662;13.300;2022-08-11T08:18:37;97823.75;;;23.03;45.42
49947;BME280;35839;48.662;13.300;2022-08-11T08:21:04;97826.13;;;23.11;43.90
49947;BME280;35839;48.662;13.300;2022-08-11T08:23:41;97831.47;;;23.11;43.87
49947;BME280;35839;48.662;13.300;2022-08-11T08:26:10;97820.72;;;23.18;43.40
49947;BME280;35839;48.662;13.300;2022-08-11T08:28:57;97815.94;;;23.27;44.35
49947;BME280;35839;48.662;13.300;2022-08-11T08:31:45;97826.94;;;23.55;44.97
49947;BME280;35839;48.662;13.300;2022-08-11T08:34:13;97826.94;;;23.55;43.15
49947;BME280;35839;48.662;13.300;2022-08-11T08:36:41;97829.91;;;23.47;42.62
49947;BME280;35839;48.662;13.300;2022-08-11T08:39:08;97826.53;;;23.52;42.37
49947;BME280;35839;48.662;13.300;2022-08-11T08:41:35;97828.84;;;23.67;42.85
49947;BME280;35839;48.662;13.300;2022-08-11T08:44:07;97827.84;;;23.86;42.73
49947;BME280;35839;48.662;13.300;2022-08-11T08:46:41;97830.63;;;23.91;42.22
49947;BME280;35839;48.662;13.300;2022-08-11T08:49:09;97834.38;;;23.90;42.23
49947;BME280;35839;48.662;13.300;2022-08-11T08:51:39;97825.59;;;24.02;42.69
49947;BME280;35839;48.662;13.300;2022-08-11T08:54:09;97833.75;;;24.07;42.01
49947;BME280;35839;48.662;13.300;2022-08-11T08:56:39;97834.63;;;24.19;41.70
49947;BME280;35839;48.662;13.300;2022-08-11T08:59:05;97825.31;;;24.22;41.45
49947;BME280;35839;48.662;13.300;2022-08-11T09:01:37;97834.75;;;24.24;40.00
49947;BME280;35839;48.662;13.300;2022-08-11T09:04:07;97832.81;;;24.31;39.73
49947;BME280;35839;48.662;13.300;2022-08-11T09:06:36;97827.81;;;24.35;39.99
49947;BME280;35839;48.662;13.300;2022-08-11T09:09:05;97820.94;;;24.57;39.53
49947;BME280;35839;48.662;13.300;2022-08-11T09:11:33;97822.34;;;24.60;39.88
49947;BME280;35839;48.662;13.300;2022-08-11T09:14:16;97821.19;;;24.79;39.73
49947;BME280;35839;48.662;13.300;2022-08-11T09:16:42;97816.56;;;24.87;38.93
49947;BME280;35839;48.662;13.300;2022-08-11T09:19:08;97816.81;;;24.85;38.30
49947;BME280;35839;48.662;13.300;2022-08-11T09:21:39;97820.78;;;25.06;39.10
49947;BME280;35839;48.662;13.300;2022-08-11T09:24:05;97821.09;;;24.98;38.81
49947;BME280;35839;48.662;13.300;2022-08-11T09:26:50;97827.97;;;25.17;37.79
49947;BME280;35839;48.662;13.300;2022-08-11T09:29:29;97818.13;;;25.18;39.18
49947;BME280;35839;48.662;13.300;2022-08-11T09:31:57;97812.28;;;25.33;38.26
49947;BME280;35839;48.662;13.300;2022-08-11T09:34:23;97815.31;;;25.36;38.35
49947;BME280;35839;48.662;13.300;2022-08-11T09:36:52;97814.22;;;25.61;39.76
49947;BME280;35839;48.662;13.300;2022-08-11T09:39:37;97819.47;;;25.68;37.57
49947;BME280;35839;48.662;13.300;2022-08-11T09:42:23;97819.66;;;25.78;38.30
49947;BME280;35839;48.662;13.300;2022-08-11T09:45:12;97824.94;;;25.73;36.14
49947;BME280;35839;48.662;13.300;2022-08-11T09:47:39;97824.00;;;25.79;35.31
49947;BME280;35839;48.662;13.300;2022-08-11T09:50:05;97823.19;;;25.78;35.25
49947;BME280;35839;48.662;13.300;2022-08-11T09:52:37;97822.63;;;25.64;36.50
49947;BME280;35839;48.662;13.300;2022-08-11T09:55:05;97815.13;;;25.90;36.40
49947;BME280;35839;48.662;13.300;2022-08-11T09:57:38;97815.13;;;25.90;37.02
49947;BME280;35839;48.662;13.300;2022-08-11T10:00:28;97809.38;;;25.98;35.93
49947;BME280;35839;48.662;13.300;2022-08-11T10:02:54;97807.84;;;26.02;35.39
49947;BME280;35839;48.662;13.300;2022-08-11T10:05:22;97816.56;;;26.38;35.62
49947;BME280;35839;48.662;13.300;2022-08-11T10:08:08;97810.06;;;26.34;34.84
49947;BME280;35839;48.662;13.300;2022-08-11T10:10:38;97803.41;;;26.54;34.90
49947;BME280;35839;48.662;13.300;2022-08-11T10:13:09;97816.03;;;26.53;35.13
49947;BME280;35839;48.662;13.300;2022-08-11T10:15:35;97808.19;;;26.52;34.61
49947;BME280;35839;48.662;13.300;2022-08-11T10:18:18;97801.47;;;26.66;33.85
49947;BME280;35839;48.662;13.300;2022-08-11T10:21:14;97813.47;;;26.75;33.75
49947;BME280;35839;48.662;13.300;2022-08-11T10:23:41;97802.22;;;26.95;33.73
49947;BME280;35839;48.662;13.300;2022-08-11T10:26:28;97796.03;;;27.11;33.01
49947;BME280;35839;48.662;13.300;2022-08-11T10:29:13;97799.84;;;26.99;33.21
49947;BME280;35839;48.662;13.300;2022-08-11T10:31:58;97796.84;;;26.78;33.10
49947;BME280;35839;48.662;13.300;2022-08-11T10:34:44;97798.22;;;26.64;32.26
49947;BME280;35839;48.662;13.300;2022-08-11T10:37:11;97799.63;;;26.83;32.35
49947;BME280;35839;48.662;13.300;2022-08-11T10:39:38;97788.59;;;27.36;33.44
49947;BME280;35839;48.662;13.300;2022-08-11T10:42:04;97787.56;;;27.20;31.61
49947;BME280;35839;48.662;13.300;2022-08-11T10:44:54;97780.91;;;27.44;32.68
49947;BME280;35839;48.662;13.300;2022-08-11T10:47:20;97781.31;;;27.53;33.07
49947;BME280;35839;48.662;13.300;2022-08-11T10:50:10;97783.03;;;27.42;32.95
49947;BME280;35839;48.662;13.300;2022-08-11T10:52:57;97777.84;;;27.36;33.40
49947;BME280;35839;48.662;13.300;2022-08-11T10:55:43;97775.75;;;27.21;32.38
49947;BME280;35839;48.662;13.300;2022-08-11T10:58:28;97773.72;;;27.50;32.85
49947;BME280;35839;48.662;13.300;2022-08-11T11:01:14;97780.72;;;27.51;32.08
49947;BME280;35839;48.662;13.300;2022-08-11T11:03:41;97777.69;;;27.86;31.25
49947;BME280;35839;48.662;13.300;2022-08-11T11:06:14;97764.75;;;28.10;30.25
49947;BME280;35839;48.662;13.300;2022-08-11T11:08:45;97764.78;;;28.43;30.48
49947;BME280;35839;48.662;13.300;2022-08-11T11:11:18;97763.25;;;28.25;30.08
49947;BME280;35839;48.662;13.300;2022-08-11T11:13:48;97763.63;;;28.06;30.83
49947;BME280;35839;48.662;13.300;2022-08-11T11:16:34;97774.19;;;27.86;32.06
49947;BME280;35839;48.662;13.300;2022-08-11T11:19:21;97761.28;;;27.44;31.48
49947;BME280;35839;48.662;13.300;2022-08-11T11:21:49;97762.16;;;27.93;32.28
49947;BME280;35839;48.662;13.300;2022-08-11T11:24:53;97764.88;;;27.99;31.18
49947;BME280;35839;48.662;13.300;2022-08-11T11:27:27;97759.47;;;27.93;31.78
49947;BME280;35839;48.662;13.300;2022-08-11T11:30:06;97760.91;;;28.06;31.46
49947;BME280;35839;48.662;13.300;2022-08-11T11:38:11;97752.19;;;27.94;31.97
49947;BME280;35839;48.662;13.300;2022-08-11T11:40:37;97739.19;;;28.13;31.75
49947;BME280;35839;48.662;13.300;2022-08-11T11:43:04;97741.81;;;28.35;32.00
49947;BME280;35839;48.662;13.300;2022-08-11T11:45:30;97747.81;;;28.42;31.05
49947;BME280;35839;48.662;13.300;2022-08-11T11:47:57;97745.28;;;28.30;31.04
49947;BME280;35839;48.662;13.300;2022-08-11T11:50:26;97743.78;;;28.12;31.74
49947;BME280;35839;48.662;13.300;2022-08-11T11:52:52;97747.22;;;28.35;31.40
49947;BME280;35839;48.662;13.300;2022-08-11T11:55:21;97742.66;;;28.41;31.84
49947;BME280;35839;48.662;13.300;2022-08-11T11:57:47;97730.97;;;28.57;29.83
49947;BME280;35839;48.662;13.300;2022-08-11T12:00:31;97739.94;;;28.35;29.67
49947;BME280;35839;48.662;13.300;2022-08-11T12:03:17;97735.72;;;28.77;29.20
49947;BME280;35839;48.662;13.300;2022-08-11T12:05:44;97736.16;;;28.04;29.53
49947;BME280;35839;48.662;13.300;2022-08-11T12:08:11;97735.00;;;27.95;30.01
49947;BME280;35839;48.662;13.300;2022-08-11T12:10:48;97729.41;;;28.34;30.60
49947;BME280;35839;48.662;13.300;2022-08-11T12:13:15;97731.22;;;27.96;29.56
49947;BME280;35839;48.662;13.300;2022-08-11T12:16:00;97731.38;;;28.11;28.58
49947;BME280;35839;48.662;13.300;2022-08-11T12:18:33;97722.28;;;28.82;29.56
49947;BME280;35839;48.662;13.300;2022-08-11T12:21:00;97719.75;;;28.38;28.78
49947;BME280;35839;48.662;13.300;2022-08-11T12:23:26;97721.50;;;28.49;27.97
49947;BME280;35839;48.662;13.300;2022-08-11T12:26:13;97715.91;;;28.98;28.54
49947;BME280;35839;48.662;13.300;2022-08-11T12:28:59;97709.03;;;29.18;28.20
49947;BME280;35839;48.662;13.300;2022-08-11T12:31:27;97713.22;;;29.04;27.82
49947;BME280;35839;48.662;13.300;2022-08-11T12:33:59;97714.69;;;29.16;27.42
49947;BME280;35839;48.662;13.300;2022-08-11T12:36:24;97716.94;;;28.92;29.72
49947;BME280;35839;48.662;13.300;2022-08-11T12:38:51;97722.81;;;29.27;27.62
49947;BME280;35839;48.662;13.300;2022-08-11T12:41:20;97711.53;;;28.87;27.63
49947;BME280;35839;48.662;13.300;2022-08-11T12:44:07;97713.94;;;29.26;27.38
49947;BME280;35839;48.662;13.300;2022-08-11T12:46:52;97712.28;;;29.20;27.13
49947;BME280;35839;48.662;13.300;2022-08-11T12:49:19;97709.63;;;28.88;27.90
49947;BME280;35839;48.662;13.300;2022-08-11T12:52:08;97716.47;;;29.00;28.37
49947;BME280;35839;48.662;13.300;2022-08-11T12:54:51;97712.28;;;29.25;27.61
49947;BME280;35839;48.662;13.300;2022-08-11T12:57:29;97710.78;;;29.55;26.74
49947;BME280;35839;48.662;13.300;2022-08-11T13:00:14;97705.94;;;29.47;26.30
49947;BME280;35839;48.662;13.300;2022-08-11T13:02:59;97693.94;;;30.11;26.43
49947;BME280;35839;48.662;13.300;2022-08-11T13:05:45;97687.75;;;30.51;25.97
49947;BME280;35839;48.662;13.300;2022-08-11T13:08:12;97693.97;;;30.57;27.30
49947;BME280;35839;48.662;13.300;2022-08-11T13:10:41;97689.88;;;30.13;27.48
49947;BME280;35839;48.662;13.300;2022-08-11T13:13:26;97688.53;;;30.00;28.38
49947;BME280;35839;48.662;13.300;2022-08-11T13:15:51;97701.44;;;29.68;28.00
49947;BME280;35839;48.662;13.300;2022-08-11T13:18:20;97701.25;;;30.46;27.92
49947;BME280;35839;48.662;13.300;2022-08-11T13:20:48;97695.03;;;30.15;28.53
49947;BME280;35839;48.662;13.300;2022-08-11T13:23:16;97691.78;;;30.02;28.08
49947;BME280;35839;48.662;13.300;2022-08-11T13:25:42;97688.50;;;29.85;28.34
49947;BME280;35839;48.662;13.300;2022-08-11T13:28:08;97683.97;;;29.28;29.65
49947;BME280;35839;48.662;13.300;2022-08-11T13:30:35;97675.94;;;29.38;29.62
49947;BME280;35839;48.662;13.300;2022-08-11T13:33:19;97678.66;;;29.43;29.17
49947;BME280;35839;48.662;13.300;2022-08-11T13:35:46;97664.66;;;28.93;28.02
49947;BME280;35839;48.662;13.300;2022-08-11T13:38:14;97682.13;;;29.33;29.36
49947;BME280;35839;48.662;13.300;2022-08-11T13:40:41;97674.63;;;29.51;28.28
49947;BME280;35839;48.662;13.300;2022-08-11T13:43:07;97672.88;;;30.02;29.72
49947;BME280;35839;48.662;13.300;2022-08-11T13:45:35;97662.09;;;30.02;29.53
49947;BME280;35839;48.662;13.300;2022-08-11T13:48:05;97667.00;;;29.27;28.26
49947;BME280;35839;48.662;13.300;2022-08-11T13:50:33;97663.84;;;29.51;28.74
49947;BME280;35839;48.662;13.300;2022-08-11T13:53:20;97664.13;;;28.96;29.81
49947;BME280;35839;48.662;13.300;2022-08-11T13:55:46;97658.75;;;28.96;30.10
49947;BME280;35839;48.662;13.300;2022-08-11T13:58:13;97655.78;;;28.93;30.00
49947;BME280;35839;48.662;13.300;2022-08-11T14:00:40;97654.31;;;28.70;30.01
49947;BME280;35839;48.662;13.300;2022-08-11T14:03:11;97663.94;;;28.61;28.94
49947;BME280;35839;48.662;13.300;2022-08-11T14:05:44;97657.13;;;28.53;30.56
49947;BME280;35839;48.662;13.300;2022-08-11T14:08:13;97654.31;;;28.37;31.03
49947;BME280;35839;48.662;13.300;2022-08-11T14:10:40;97659.66;;;27.95;30.86
49947;BME280;35839;48.662;13.300;2022-08-11T14:13:15;97655.22;;;28.48;30.91
49947;BME280;35839;48.662;13.300;2022-08-11T14:16:06;97654.06;;;28.39;30.73
49947;BME280;35839;48.662;13.300;2022-08-11T14:18:32;97649.78;;;28.11;30.31
49947;BME280;35839;48.662;13.300;2022-08-11T14:21:00;97643.31;;;28.07;30.60
49947;BME280;35839;48.662;13.300;2022-08-11T14:23:48;97645.88;;;28.56;30.34
49947;BME280;35839;48.662;13.300;2022-08-11T14:26:16;97637.28;;;29.12;28.04
49947;BME280;35839;48.662;13.300;2022-08-11T14:28:48;97649.47;;;28.72;29.32
49947;BME280;35839;48.662;13.300;2022-08-11T14:31:14;97641.78;;;29.69;29.99
49947;BME280;35839;48.662;13.300;2022-08-11T14:33:40;97646.28;;;29.38;29.44
49947;BME280;35839;48.662;13.300;2022-08-11T14:36:07;97641.09;;;29.21;28.69
49947;BME280;35839;48.662;13.300;2022-08-11T14:38:34;97635.59;;;29.00;30.39
49947;BME280;35839;48.662;13.300;2022-08-11T14:41:01;97635.84;;;28.46;30.42
49947;BME280;35839;48.662;13.300;2022-08-11T14:43:46;97635.13;;;28.61;30.13
49947;BME280;35839;48.662;13.300;2022-08-11T14:46:35;97635.44;;;29.28;29.15
49947;BME280;35839;48.662;13.300;2022-08-11T14:49:20;97640.56;;;31.19;28.93
49947;BME280;35839;48.662;13.300;2022-08-11T14:51:47;97644.41;;;31.07;28.21
49947;BME280;35839;48.662;13.300;2022-08-11T14:54:14;97638.78;;;31.59;25.94
49947;BME280;35839;48.662;13.300;2022-08-11T14:56:58;97641.63;;;32.46;26.09
49947;BME280;35839;48.662;13.300;2022-08-11T14:59:25;97634.91;;;32.73;25.40
49947;BME280;35839;48.662;13.300;2022-08-11T15:01:51;97632.81;;;33.13;26.11
49947;BME280;35839;48.662;13.300;2022-08-11T15:04:35;97628.34;;;33.65;23.38
49947;BME280;35839;48.662;13.300;2022-08-11T15:07:02;97631.06;;;33.65;22.58
49947;BME280;35839;48.662;13.300;2022-08-11T15:09:28;97633.38;;;32.86;24.67
49947;BME280;35839;48.662;13.300;2022-08-11T15:11:54;97630.81;;;32.70;25.17
49947;BME280;35839;48.662;13.300;2022-08-11T15:14:42;97620.34;;;32.88;23.68
49947;BME280;35839;48.662;13.300;2022-08-11T15:17:27;97626.00;;;32.67;24.06
49947;BME280;35839;48.662;13.300;2022-08-11T15:19:54;97630.38;;;32.63;23.74
49947;BME280;35839;48.662;13.300;2022-08-11T15:22:40;97616.50;;;33.75;24.28
49947;BME280;35839;48.662;13.300;2022-08-11T15:25:25;97618.53;;;33.02;24.39
49947;BME280;35839;48.662;13.300;2022-08-11T15:27:52;97629.84;;;32.61;24.75
49947;BME280;35839;48.662;13.300;2022-08-11T15:30:37;97616.91;;;33.06;24.03
49947;BME280;35839;48.662;13.300;2022-08-11T15:33:23;97619.63;;;34.01;22.31
49947;BME280;35839;48.662;13.300;2022-08-11T15:36:10;97622.38;;;34.80;21.91
49947;BME280;35839;48.662;13.300;2022-08-11T15:39:02;97619.09;;;33.85;23.08
49947;BME280;35839;48.662;13.300;2022-08-11T15:41:38;97618.91;;;33.95;22.62
49947;BME280;35839;48.662;13.300;2022-08-11T15:44:29;97614.13;;;34.39;22.11
49947;BME280;35839;48.662;13.300;2022-08-11T15:47:16;97616.88;;;33.87;24.13
49947;BME280;35839;48.662;13.300;2022-08-11T15:49:43;97610.72;;;32.77;23.63
49947;BME280;35839;48.662;13.300;2022-08-11T15:52:17;97610.94;;;32.27;23.97
49947;BME280;35839;48.662;13.300;2022-08-11T15:54:46;97611.00;;;31.38;25.38
49947;BME280;35839;48.662;13.300;2022-08-11T15:57:14;97607.59;;;31.12;25.66
49947;BME280;35839;48.662;13.300;2022-08-11T16:00:03;97603.19;;;29.69;27.02
49947;BME280;35839;48.662;13.300;2022-08-11T16:02:49;97597.97;;;29.21;26.79
49947;BME280;35839;48.662;13.300;2022-08-11T16:05:22;97604.41;;;29.15;27.78
49947;BME280;35839;48.662;13.300;2022-08-11T16:07:50;97604.22;;;29.62;27.87
49947;BME280;35839;48.662;13.300;2022-08-11T16:10:19;97598.09;;;28.94;28.62
49947;BME280;35839;48.662;13.300;2022-08-11T16:15:31;97594.72;;;28.24;29.80
49947;BME280;35839;48.662;13.300;2022-08-11T16:18:22;97584.91;;;28.07;30.25
49947;BME280;35839;48.662;13.300;2022-08-11T16:20:50;97586.63;;;27.59;31.39
49947;BME280;35839;48.662;13.300;2022-08-11T16:23:19;97584.94;;;27.80;30.89
49947;BME280;35839;48.662;13.300;2022-08-11T16:25:50;97577.53;;;27.65;30.75
49947;BME280;35839;48.662;13.300;2022-08-11T16:28:19;97586.69;;;27.37;32.36
49947;BME280;35839;48.662;13.300;2022-08-11T16:30:46;97587.13;;;27.07;32.13
49947;BME280;35839;48.662;13.300;2022-08-11T16:33:14;97576.13;;;26.86;32.84
49947;BME280;35839;48.662;13.300;2022-08-11T16:35:40;97589.00;;;26.84;32.83
49947;BME280;35839;48.662;13.300;2022-08-11T16:38:26;97587.06;;;26.58;34.40
49947;BME280;35839;48.662;13.300;2022-08-11T16:41:02;97587.38;;;26.61;33.63
49947;BME280;35839;48.662;13.300;2022-08-11T16:43:29;97586.94;;;26.14;34.82
49947;BME280;35839;48.662;13.300;2022-08-11T16:46:17;97587.56;;;25.87;34.00
49947;BME280;35839;48.662;13.300;2022-08-11T16:49:08;97588.47;;;25.76;35.16
49947;BME280;35839;48.662;13.300;2022-08-11T16:51:35;97581.50;;;26.09;34.50
49947;BME280;35839;48.662;13.300;2022-08-11T16:54:01;97578.72;;;26.03;35.04
49947;BME280;35839;48.662;13.300;2022-08-11T16:56:30;97587.34;;;25.89;35.55
49947;BME280;35839;48.662;13.300;2022-08-11T16:58:59;97584.50;;;26.68;34.82
49947;BME280;35839;48.662;13.300;2022-08-11T17:01:40;97581.56;;;26.14;35.37
49947;BME280;35839;48.662;13.300;2022-08-11T17:04:32;97589.44;;;26.03;35.55
49947;BME280;35839;48.662;13.300;2022-08-11T17:07:19;97582.59;;;25.79;35.56
49947;BME280;35839;48.662;13.300;2022-08-11T17:10:06;97589.53;;;25.46;37.05
49947;BME280;35839;48.662;13.300;2022-08-11T17:12:54;97590.09;;;24.79;37.46
49947;BME280;35839;48.662;13.300;2022-08-11T17:15:43;97591.88;;;24.62;38.02
49947;BME280;35839;48.662;13.300;2022-08-11T17:18:29;97585.25;;;24.52;38.26
49947;BME280;35839;48.662;13.300;2022-08-11T17:21:08;97597.09;;;24.56;38.42
49947;BME280;35839;48.662;13.300;2022-08-11T17:23:38;97587.34;;;24.50;40.31
49947;BME280;35839;48.662;13.300;2022-08-11T17:26:40;97584.66;;;24.62;38.62
49947;BME280;35839;48.662;13.300;2022-08-11T17:29:49;97584.91;;;24.49;39.06
49947;BME280;35839;48.662;13.300;2022-08-11T17:32:22;97578.34;;;24.45;39.71
49947;BME280;35839;48.662;13.300;2022-08-11T17:35:10;97577.31;;;24.46;38.82
49947;BME280;35839;48.662;13.300;2022-08-11T17:38:02;97578.34;;;24.45;38.88
49947;BME280;35839;48.662;13.300;2022-08-11T17:40:29;97572.56;;;24.48;39.84
49947;BME280;35839;48.662;13.300;2022-08-11T17:42:56;97578.25;;;24.51;39.95
49947;BME280;35839;48.662;13.300;2022-08-11T17:45:43;97580.69;;;24.29;39.57
49947;BME280;35839;48.662;13.300;2022-08-11T17:48:39;97584.88;;;24.37;39.64
49947;BME280;35839;48.662;13.300;2022-08-11T17:51:16;97578.56;;;24.08;39.81
49947;BME280;35839;48.662;13.300;2022-08-11T17:54:03;97587.88;;;24.17;40.58
49947;BME280;35839;48.662;13.300;2022-08-11T17:56:49;97581.72;;;24.05;40.36
49947;BME280;35839;48.662;13.300;2022-08-11T17:59:34;97592.69;;;23.73;41.09
49947;BME280;35839;48.662;13.300;2022-08-11T18:02:21;97587.41;;;23.85;41.61
49947;BME280;35839;48.662;13.300;2022-08-11T18:05:07;97595.97;;;23.75;41.90
49947;BME280;35839;48.662;13.300;2022-08-11T18:07:34;97582.91;;;23.67;41.58
49947;BME280;35839;48.662;13.300;2022-08-11T18:10:19;97582.56;;;23.63;41.22
49947;BME280;35839;48.662;13.300;2022-08-11T18:13:04;97592.06;;;23.47;42.01
49947;BME280;35839;48.662;13.300;2022-08-11T18:15:49;97569.50;;;23.13;43.01
49947;BME280;35839;48.662;13.300;2022-08-11T18:18:33;97592.44;;;23.32;43.78
49947;BME280;35839;48.662;13.300;2022-08-11T18:21:18;97592.41;;;23.21;43.55
49947;BME280;35839;48.662;13.300;2022-08-11T18:24:12;97583.41;;;23.03;44.17
49947;BME280;35839;48.662;13.300;2022-08-11T18:27:01;97598.97;;;23.06;45.28
49947;BME280;35839;48.662;13.300;2022-08-11T18:29:48;97599.53;;;22.90;45.50
49947;BME280;35839;48.662;13.300;2022-08-11T18:32:33;97599.09;;;22.93;44.42
49947;BME280;35839;48.662;13.300;2022-08-11T18:35:19;97604.59;;;22.80;44.67
49947;BME280;35839;48.662;13.300;2022-08-11T18:38:05;97596.13;;;22.83;45.00
49947;BME280;35839;48.662;13.300;2022-08-11T18:40:51;97602.44;;;22.88;45.87
49947;BME280;35839;48.662;13.300;2022-08-11T18:43:38;97607.16;;;22.86;45.62
49947;BME280;35839;48.662;13.300;2022-08-11T18:46:24;97600.66;;;22.64;46.31
49947;BME280;35839;48.662;13.300;2022-08-11T18:49:14;97604.06;;;22.52;46.71
49947;BME280;35839;48.662;13.300;2022-08-11T18:51:59;97607.88;;;22.13;48.52
49947;BME280;35839;48.662;13.300;2022-08-11T18:54:45;97610.19;;;21.84;48.79
49947;BME280;35839;48.662;13.300;2022-08-11T18:57:31;97607.84;;;21.63;50.25
49947;BME280;35839;48.662;13.300;2022-08-11T19:00:17;97617.81;;;21.74;49.62
49947;BME280;35839;48.662;13.300;2022-08-11T19:03:02;97614.03;;;21.57;51.74
49947;BME280;35839;48.662;13.300;2022-08-11T19:05:48;97613.91;;;21.45;51.26
49947;BME280;35839;48.662;13.300;2022-08-11T19:08:36;97615.75;;;21.44;51.82